sensor_id;sensor_type;location;lat;lon;timestamp;pressure;altitude;pressure_sealevel;temperature;humidity
29985;BME280;17387;42.690;23.328;2022-08-03T00:01:28;47414.97;;;-144.02;62.71
29985;BME280;17387;42.690;23.328;2022-08-03T00:03:54;47402.78;;;-144.02;62.80
29985;BME280;17387;42.690;23.328;2022-08-03T00:06:19;47427.16;;;-144.02;62.71
29985;BME280;17387;42.690;23.328;2022-08-03T00:08:45;47376.38;;;-144.02;62.90
29985;BME280;17387;42.690;23.328;2022-08-03T00:11:10;47376.38;;;-144.02;63.05
29985;BME280;17387;42.690;23.328;2022-08-03T00:13:36;47419.03;;;-144.02;63.76
29985;BME280;17387;42.690;23.328;2022-08-03T00:16:01;47429.19;;;-144.02;64.06
29985;BME280;17387;42.690;23.328;2022-08-03T00:18:27;47457.63;;;-144.02;63.78
29985;BME280;17387;42.690;23.328;2022-08-03T00:20:52;47437.31;;;-144.02;64.47
29985;BME280;17387;42.690;23.328;2022-08-03T00:23:18;47429.19;;;-144.02;64.84
29985;BME280;17387;42.690;23.328;2022-08-03T00:25:43;47559.19;;;-144.02;64.24
29985;BME280;17387;42.690;23.328;2022-08-03T00:28:09;47410.91;;;-144.02;64.89
29985;BME280;17387;42.690;23.328;2022-08-03T00:30:35;47437.31;;;-144.02;65.20
29985;BME280;17387;42.690;23.328;2022-08-03T00:33:00;47459.66;;;-144.02;64.68
29985;BME280;17387;42.690;23.328;2022-08-03T00:35:27;47457.63;;;-144.02;65.06
29985;BME280;17387;42.690;23.328;2022-08-03T00:37:53;47396.69;;;-144.02;65.41
29985;BME280;17387;42.690;23.328;2022-08-03T00:40:19;47421.06;;;-144.02;65.59
29985;BME280;17387;42.690;23.328;2022-08-03T00:45:16;47392.63;;;-144.02;65.81
29985;BME280;17387;42.690;23.328;2022-08-03T00:47:42;47421.06;;;-144.02;66.04
29985;BME280;17387;42.690;23.328;2022-08-03T00:50:08;47439.34;;;-144.02;66.06
29985;BME280;17387;42.690;23.328;2022-08-03T00:52:34;47425.13;;;-144.02;65.68
29985;BME280;17387;42.690;23.328;2022-08-03T00:55:00;47408.88;;;-144.02;65.88
29985;BME280;17387;42.690;23.328;2022-08-03T00:57:27;47425.13;;;-144.02;65.98
29985;BME280;17387;42.690;23.328;2022-08-03T00:59:54;47431.22;;;-144.02;66.11
29985;BME280;17387;42.690;23.328;2022-08-03T01:02:20;47453.56;;;-144.02;66.63
29985;BME280;17387;42.690;23.328;2022-08-03T01:04:45;47469.81;;;-144.02;66.99
29985;BME280;17387;42.690;23.328;2022-08-03T01:07:16;47437.31;;;-144.02;67.03
29985;BME280;17387;42.690;23.328;2022-08-03T01:09:54;47384.50;;;-144.02;67.05
29985;BME280;17387;42.690;23.328;2022-08-03T01:18:05;47494.19;;;-144.02;67.21
29985;BME280;17387;42.690;23.328;2022-08-03T01:20:33;47406.84;;;-144.02;66.64
29985;BME280;17387;42.690;23.328;2022-08-03T01:26:10;47394.66;;;-144.02;67.23
29985;BME280;17387;42.690;23.328;2022-08-03T01:31:40;47423.09;;;-144.02;67.60
29985;BME280;17387;42.690;23.328;2022-08-03T01:34:10;47433.25;;;-144.02;67.44
29985;BME280;17387;42.690;23.328;2022-08-03T01:36:39;47433.25;;;-144.02;67.67
29985;BME280;17387;42.690;23.328;2022-08-03T01:39:07;47417.00;;;-144.02;67.23
29985;BME280;17387;42.690;23.328;2022-08-03T01:41:38;47463.72;;;-144.02;67.38
29985;BME280;17387;42.690;23.328;2022-08-03T01:44:08;47447.47;;;-144.02;68.13
29985;BME280;17387;42.690;23.328;2022-08-03T01:46:35;47412.94;;;-144.02;68.40
29985;BME280;17387;42.690;23.328;2022-08-03T01:49:02;47498.25;;;-144.02;68.00
29985;BME280;17387;42.690;23.328;2022-08-03T01:51:29;47453.56;;;-144.02;68.36
29985;BME280;17387;42.690;23.328;2022-08-03T01:53:56;47445.44;;;-144.02;68.27
29985;BME280;17387;42.690;23.328;2022-08-03T01:56:24;47449.50;;;-144.02;68.15
29985;BME280;17387;42.690;23.328;2022-08-03T01:58:53;47414.97;;;-144.02;68.37
29985;BME280;17387;42.690;23.328;2022-08-03T02:01:20;47423.09;;;-144.02;69.04
29985;BME280;17387;42.690;23.328;2022-08-03T02:03:48;47449.50;;;-144.02;69.25
29985;BME280;17387;42.690;23.328;2022-08-03T02:06:16;47528.72;;;-144.02;68.98
29985;BME280;17387;42.690;23.328;2022-08-03T02:08:44;47410.91;;;-144.02;69.02
29985;BME280;17387;42.690;23.328;2022-08-03T02:11:11;47429.19;;;-144.02;68.71
29985;BME280;17387;42.690;23.328;2022-08-03T02:13:38;47461.69;;;-144.02;69.25
29985;BME280;17387;42.690;23.328;2022-08-03T02:16:04;47384.50;;;-144.02;69.09
29985;BME280;17387;42.690;23.328;2022-08-03T02:18:31;47441.38;;;-144.02;69.52
29985;BME280;17387;42.690;23.328;2022-08-03T02:21:00;47433.25;;;-144.02;69.42
29985;BME280;17387;42.690;23.328;2022-08-03T02:23:26;47392.63;;;-144.02;69.29
29985;BME280;17387;42.690;23.328;2022-08-03T02:25:59;47461.69;;;-144.02;69.53
29985;BME280;17387;42.690;23.328;2022-08-03T02:28:33;47445.44;;;-144.02;69.04
29985;BME280;17387;42.690;23.328;2022-08-03T02:31:02;47429.19;;;-144.02;69.85
29985;BME280;17387;42.690;23.328;2022-08-03T02:33:36;47451.53;;;-144.02;71.00
29985;BME280;17387;42.690;23.328;2022-08-03T02:36:03;47583.53;;;-144.02;70.03
29985;BME280;17387;42.690;23.328;2022-08-03T02:38:35;47453.56;;;-144.02;69.68
29985;BME280;17387;42.690;23.328;2022-08-03T02:41:04;47461.69;;;-144.02;69.97
29985;BME280;17387;42.690;23.328;2022-08-03T02:43:34;47431.22;;;-144.02;69.70
29985;BME280;17387;42.690;23.328;2022-08-03T02:46:00;47404.81;;;-144.02;69.88
29985;BME280;17387;42.690;23.328;2022-08-03T02:48:31;47469.81;;;-144.02;70.53
29985;BME280;17387;42.690;23.328;2022-08-03T02:50:58;47465.75;;;-144.02;71.04
29985;BME280;17387;42.690;23.328;2022-08-03T02:53:26;47441.38;;;-144.02;71.41
29985;BME280;17387;42.690;23.328;2022-08-03T02:55:54;47435.28;;;-144.02;70.93
29985;BME280;17387;42.690;23.328;2022-08-03T02:58:20;47408.88;;;-144.02;70.83
29985;BME280;17387;42.690;23.328;2022-08-03T03:00:48;47419.03;;;-144.02;70.56
29985;BME280;17387;42.690;23.328;2022-08-03T03:03:16;47453.56;;;-144.02;70.92
29985;BME280;17387;42.690;23.328;2022-08-03T03:05:42;47433.25;;;-144.02;71.52
29985;BME280;17387;42.690;23.328;2022-08-03T03:08:14;47455.59;;;-144.02;72.27
29985;BME280;17387;42.690;23.328;2022-08-03T03:10:40;47429.19;;;-144.02;72.73
29985;BME280;17387;42.690;23.328;2022-08-03T03:13:08;47443.41;;;-144.02;73.09
29985;BME280;17387;42.690;23.328;2022-08-03T03:15:35;47624.16;;;-144.02;72.41
29985;BME280;17387;42.690;23.328;2022-08-03T03:18:04;47437.31;;;-144.02;72.04
29985;BME280;17387;42.690;23.328;2022-08-03T03:20:32;47400.75;;;-144.02;71.60
29985;BME280;17387;42.690;23.328;2022-08-03T03:23:00;47400.75;;;-144.02;71.42
29985;BME280;17387;42.690;23.328;2022-08-03T03:25:28;47451.53;;;-144.02;71.56
29985;BME280;17387;42.690;23.328;2022-08-03T03:27:55;47443.41;;;-144.02;71.92
29985;BME280;17387;42.690;23.328;2022-08-03T03:30:20;47449.50;;;-144.02;72.32
29985;BME280;17387;42.690;23.328;2022-08-03T03:32:46;47425.13;;;-144.02;72.42
29985;BME280;17387;42.690;23.328;2022-08-03T03:35:13;47406.84;;;-144.02;72.44
29985;BME280;17387;42.690;23.328;2022-08-03T03:37:39;47457.63;;;-144.02;72.69
29985;BME280;17387;42.690;23.328;2022-08-03T03:40:04;47461.69;;;-144.02;72.67
29985;BME280;17387;42.690;23.328;2022-08-03T03:42:30;47437.31;;;-144.02;73.13
29985;BME280;17387;42.690;23.328;2022-08-03T03:44:56;47410.91;;;-144.02;73.25
29985;BME280;17387;42.690;23.328;2022-08-03T03:47:22;47437.31;;;-144.02;73.61
29985;BME280;17387;42.690;23.328;2022-08-03T03:50:08;47445.44;;;-144.02;72.63
29985;BME280;17387;42.690;23.328;2022-08-03T03:52:37;47459.66;;;-144.02;72.06
29985;BME280;17387;42.690;23.328;2022-08-03T03:55:03;47469.81;;;-144.02;72.08
29985;BME280;17387;42.690;23.328;2022-08-03T03:57:29;47400.75;;;-144.02;72.14
29985;BME280;17387;42.690;23.328;2022-08-03T03:59:54;47449.50;;;-144.02;72.27
29985;BME280;17387;42.690;23.328;2022-08-03T04:02:20;47465.75;;;-144.02;72.20
29985;BME280;17387;42.690;23.328;2022-08-03T04:04:45;47453.56;;;-144.02;72.05
29985;BME280;17387;42.690;23.328;2022-08-03T04:07:39;47425.13;;;-144.02;69.88
29985;BME280;17387;42.690;23.328;2022-08-03T04:10:26;47433.25;;;-144.02;70.06
29985;BME280;17387;42.690;23.328;2022-08-03T04:13:13;47482.00;;;-144.02;70.14
29985;BME280;17387;42.690;23.328;2022-08-03T04:15:40;47443.41;;;-144.02;69.68
29985;BME280;17387;42.690;23.328;2022-08-03T04:18:08;47498.25;;;-144.02;69.18
29985;BME280;17387;42.690;23.328;2022-08-03T04:20:37;47575.44;;;-144.02;69.78
29985;BME280;17387;42.690;23.328;2022-08-03T04:23:05;47412.94;;;-144.02;69.59
29985;BME280;17387;42.690;23.328;2022-08-03T04:25:33;47439.34;;;-144.02;69.46
29985;BME280;17387;42.690;23.328;2022-08-03T04:28:01;47417.00;;;-144.02;68.69
29985;BME280;17387;42.690;23.328;2022-08-03T04:30:27;47410.91;;;-144.02;68.52
29985;BME280;17387;42.690;23.328;2022-08-03T04:32:57;47400.75;;;-144.02;68.23
29985;BME280;17387;42.690;23.328;2022-08-03T04:35:24;47388.56;;;-144.02;67.98
29985;BME280;17387;42.690;23.328;2022-08-03T04:37:53;47425.13;;;-144.02;67.29
29985;BME280;17387;42.690;23.328;2022-08-03T04:40:34;47406.84;;;-144.02;67.15
29985;BME280;17387;42.690;23.328;2022-08-03T04:43:01;47591.66;;;-144.02;66.98
29985;BME280;17387;42.690;23.328;2022-08-03T04:45:30;47437.31;;;-144.02;66.41
29985;BME280;17387;42.690;23.328;2022-08-03T04:47:57;47400.75;;;-144.02;66.24
29985;BME280;17387;42.690;23.328;2022-08-03T04:50:23;47392.63;;;-144.02;66.01
29985;BME280;17387;42.690;23.328;2022-08-03T04:52:49;47380.44;;;-144.02;66.31
29985;BME280;17387;42.690;23.328;2022-08-03T04:55:31;47417.00;;;-144.02;66.05
29985;BME280;17387;42.690;23.328;2022-08-03T04:57:57;47392.63;;;-144.02;65.86
29985;BME280;17387;42.690;23.328;2022-08-03T05:00:24;47412.94;;;-144.02;66.22
29985;BME280;17387;42.690;23.328;2022-08-03T05:02:49;47404.81;;;-144.02;66.01
29985;BME280;17387;42.690;23.328;2022-08-03T05:05:16;47421.06;;;-144.02;65.63
29985;BME280;17387;42.690;23.328;2022-08-03T05:07:41;47414.97;;;-144.02;65.72
29985;BME280;17387;42.690;23.328;2022-08-03T05:10:08;47402.78;;;-144.02;66.26
29985;BME280;17387;42.690;23.328;2022-08-03T05:12:34;47398.72;;;-144.02;65.38
29985;BME280;17387;42.690;23.328;2022-08-03T05:15:00;47421.06;;;-144.02;64.51
29985;BME280;17387;42.690;23.328;2022-08-03T05:17:26;47421.06;;;-144.02;65.13
29985;BME280;17387;42.690;23.328;2022-08-03T05:19:53;47402.78;;;-144.02;65.38
29985;BME280;17387;42.690;23.328;2022-08-03T05:22:20;47431.22;;;-144.02;65.16
29985;BME280;17387;42.690;23.328;2022-08-03T05:24:45;47484.03;;;-144.02;64.26
29985;BME280;17387;42.690;23.328;2022-08-03T05:27:11;47400.75;;;-144.02;64.18
29985;BME280;17387;42.690;23.328;2022-08-03T05:29:42;47421.06;;;-144.02;63.51
29985;BME280;17387;42.690;23.328;2022-08-03T05:32:07;47384.50;;;-144.02;63.53
29985;BME280;17387;42.690;23.328;2022-08-03T05:34:33;47396.69;;;-144.02;63.15
29985;BME280;17387;42.690;23.328;2022-08-03T05:36:58;47429.19;;;-144.02;62.37
29985;BME280;17387;42.690;23.328;2022-08-03T05:39:24;47404.81;;;-144.02;62.88
29985;BME280;17387;42.690;23.328;2022-08-03T05:41:49;47347.94;;;-144.02;62.07
29985;BME280;17387;42.690;23.328;2022-08-03T05:44:14;47437.31;;;-144.02;62.08
29985;BME280;17387;42.690;23.328;2022-08-03T05:46:40;47406.84;;;-144.02;61.72
29985;BME280;17387;42.690;23.328;2022-08-03T05:49:05;47419.03;;;-144.02;61.99
29985;BME280;17387;42.690;23.328;2022-08-03T05:51:31;47376.38;;;-144.02;61.31
29985;BME280;17387;42.690;23.328;2022-08-03T05:53:56;47425.13;;;-144.02;61.16
29985;BME280;17387;42.690;23.328;2022-08-03T05:56:23;47392.63;;;-144.02;60.45
29985;BME280;17387;42.690;23.328;2022-08-03T05:58:51;47421.06;;;-144.02;60.61
29985;BME280;17387;42.690;23.328;2022-08-03T06:01:18;47423.09;;;-144.02;60.77
29985;BME280;17387;42.690;23.328;2022-08-03T06:03:45;47433.25;;;-144.02;60.63
29985;BME280;17387;42.690;23.328;2022-08-03T06:06:11;47398.72;;;-144.02;59.66
29985;BME280;17387;42.690;23.328;2022-08-03T06:08:36;47425.13;;;-144.02;59.03
29985;BME280;17387;42.690;23.328;2022-08-03T06:11:02;47400.75;;;-144.02;58.26
29985;BME280;17387;42.690;23.328;2022-08-03T06:13:28;47398.72;;;-144.02;57.97
29985;BME280;17387;42.690;23.328;2022-08-03T06:15:54;47396.69;;;-144.02;57.28
29985;BME280;17387;42.690;23.328;2022-08-03T06:18:20;47339.81;;;-144.02;57.17
29985;BME280;17387;42.690;23.328;2022-08-03T06:20:45;47370.28;;;-144.02;56.78
29985;BME280;17387;42.690;23.328;2022-08-03T06:23:11;47390.59;;;-144.02;55.93
29985;BME280;17387;42.690;23.328;2022-08-03T06:25:36;47396.69;;;-144.02;55.73
29985;BME280;17387;42.690;23.328;2022-08-03T06:28:02;47404.81;;;-144.02;55.36
29985;BME280;17387;42.690;23.328;2022-08-03T06:30:29;47388.56;;;-144.02;54.78
29985;BME280;17387;42.690;23.328;2022-08-03T06:32:55;47352.00;;;-144.02;54.25
29985;BME280;17387;42.690;23.328;2022-08-03T06:35:20;47341.84;;;-144.02;54.24
29985;BME280;17387;42.690;23.328;2022-08-03T06:37:48;47396.69;;;-144.02;53.67
29985;BME280;17387;42.690;23.328;2022-08-03T06:40:16;47396.69;;;-144.02;54.33
29985;BME280;17387;42.690;23.328;2022-08-03T06:42:43;47374.34;;;-144.02;53.39
29985;BME280;17387;42.690;23.328;2022-08-03T06:45:09;47378.41;;;-144.02;53.72
29985;BME280;17387;42.690;23.328;2022-08-03T06:47:36;47374.34;;;-144.02;52.87
29985;BME280;17387;42.690;23.328;2022-08-03T06:50:02;47360.13;;;-144.02;52.70
29985;BME280;17387;42.690;23.328;2022-08-03T06:52:28;47352.00;;;-144.02;52.56
29985;BME280;17387;42.690;23.328;2022-08-03T06:54:53;47358.09;;;-144.02;51.85
29985;BME280;17387;42.690;23.328;2022-08-03T06:57:19;47354.03;;;-144.02;52.05
29985;BME280;17387;42.690;23.328;2022-08-03T06:59:44;47392.63;;;-144.02;51.95
29985;BME280;17387;42.690;23.328;2022-08-03T07:02:10;47394.66;;;-144.02;51.15
29985;BME280;17387;42.690;23.328;2022-08-03T07:04:36;47333.72;;;-144.02;49.91
29985;BME280;17387;42.690;23.328;2022-08-03T07:07:02;47356.06;;;-144.02;48.44
29985;BME280;17387;42.690;23.328;2022-08-03T07:09:27;47392.63;;;-144.02;48.50
29985;BME280;17387;42.690;23.328;2022-08-03T07:11:53;47421.06;;;-144.02;48.39
29985;BME280;17387;42.690;23.328;2022-08-03T07:14:19;47327.63;;;-144.02;48.23
29985;BME280;17387;42.690;23.328;2022-08-03T07:16:45;47376.38;;;-144.02;49.11
29985;BME280;17387;42.690;23.328;2022-08-03T07:19:10;47339.81;;;-144.02;48.71
29985;BME280;17387;42.690;23.328;2022-08-03T07:21:36;47317.47;;;-144.02;48.59
29985;BME280;17387;42.690;23.328;2022-08-03T07:24:02;47341.84;;;-144.02;48.15
29985;BME280;17387;42.690;23.328;2022-08-03T07:26:27;47356.06;;;-144.02;48.89
29985;BME280;17387;42.690;23.328;2022-08-03T07:28:53;47354.03;;;-144.02;48.24
29985;BME280;17387;42.690;23.328;2022-08-03T07:31:18;47347.94;;;-144.02;47.96
29985;BME280;17387;42.690;23.328;2022-08-03T07:33:44;47317.47;;;-144.02;48.51
29985;BME280;17387;42.690;23.328;2022-08-03T07:36:09;47374.34;;;-144.02;48.25
29985;BME280;17387;42.690;23.328;2022-08-03T07:38:34;47343.88;;;-144.02;47.03
29985;BME280;17387;42.690;23.328;2022-08-03T07:41:01;47349.97;;;-144.02;47.00
29985;BME280;17387;42.690;23.328;2022-08-03T07:43:27;47303.25;;;-144.02;45.85
29985;BME280;17387;42.690;23.328;2022-08-03T07:45:52;47341.84;;;-144.02;45.70
29985;BME280;17387;42.690;23.328;2022-08-03T07:48:18;47352.00;;;-144.02;44.95
29985;BME280;17387;42.690;23.328;2022-08-03T07:50:43;47352.00;;;-144.02;45.07
29985;BME280;17387;42.690;23.328;2022-08-03T07:53:09;47323.56;;;-144.02;44.89
29985;BME280;17387;42.690;23.328;2022-08-03T07:55:34;47354.03;;;-144.02;44.42
29985;BME280;17387;42.690;23.328;2022-08-03T07:58:01;47309.34;;;-144.02;43.73
29985;BME280;17387;42.690;23.328;2022-08-03T08:00:26;47323.56;;;-144.02;42.50
29985;BME280;17387;42.690;23.328;2022-08-03T08:02:55;47307.31;;;-144.02;43.14
29985;BME280;17387;42.690;23.328;2022-08-03T08:05:21;47287.00;;;-144.02;41.82
29985;BME280;17387;42.690;23.328;2022-08-03T08:07:46;47358.09;;;-144.02;40.21
29985;BME280;17387;42.690;23.328;2022-08-03T08:10:11;47327.63;;;-144.02;40.43
29985;BME280;17387;42.690;23.328;2022-08-03T08:12:38;47309.34;;;-144.02;40.89
29985;BME280;17387;42.690;23.328;2022-08-03T08:15:05;47329.66;;;-144.02;39.57
29985;BME280;17387;42.690;23.328;2022-08-03T08:17:40;47335.75;;;-144.02;39.63
29985;BME280;17387;42.690;23.328;2022-08-03T08:20:06;47347.94;;;-144.02;40.11
29985;BME280;17387;42.690;23.328;2022-08-03T08:22:32;47352.00;;;-144.02;39.39
29985;BME280;17387;42.690;23.328;2022-08-03T08:24:58;47394.66;;;-144.02;39.75
29985;BME280;17387;42.690;23.328;2022-08-03T08:27:23;47347.94;;;-144.02;39.27
29985;BME280;17387;42.690;23.328;2022-08-03T08:29:49;47347.94;;;-144.02;39.23
29985;BME280;17387;42.690;23.328;2022-08-03T08:32:14;47287.00;;;-144.02;39.11
29985;BME280;17387;42.690;23.328;2022-08-03T08:34:40;47335.75;;;-144.02;39.39
29985;BME280;17387;42.690;23.328;2022-08-03T08:37:06;47303.25;;;-144.02;38.76
29985;BME280;17387;42.690;23.328;2022-08-03T08:39:31;47303.25;;;-144.02;37.61
29985;BME280;17387;42.690;23.328;2022-08-03T08:41:56;47311.38;;;-144.02;37.18
29985;BME280;17387;42.690;23.328;2022-08-03T08:44:24;47319.50;;;-144.02;37.88
29985;BME280;17387;42.690;23.328;2022-08-03T08:46:52;47465.75;;;-144.02;37.12
29985;BME280;17387;42.690;23.328;2022-08-03T08:49:22;47313.41;;;-144.02;37.05
29985;BME280;17387;42.690;23.328;2022-08-03T08:51:49;47321.53;;;-144.02;36.62
29985;BME280;17387;42.690;23.328;2022-08-03T08:54:17;47284.97;;;-144.02;36.30
29985;BME280;17387;42.690;23.328;2022-08-03T08:56:45;47307.31;;;-144.02;35.94
29985;BME280;17387;42.690;23.328;2022-08-03T08:59:11;47311.38;;;-144.02;36.47
29985;BME280;17387;42.690;23.328;2022-08-03T09:01:37;47319.50;;;-144.02;36.79
29985;BME280;17387;42.690;23.328;2022-08-03T09:04:05;47315.44;;;-144.02;36.14
29985;BME280;17387;42.690;23.328;2022-08-03T09:06:31;47293.09;;;-144.02;35.96
29985;BME280;17387;42.690;23.328;2022-08-03T09:08:57;47459.66;;;-144.02;36.10
29985;BME280;17387;42.690;23.328;2022-08-03T09:11:23;47262.63;;;-144.02;35.57
29985;BME280;17387;42.690;23.328;2022-08-03T09:13:51;47270.75;;;-144.02;34.78
29985;BME280;17387;42.690;23.328;2022-08-03T09:16:18;47252.47;;;-144.02;34.29
29985;BME280;17387;42.690;23.328;2022-08-03T09:18:52;47284.97;;;-144.02;34.20
29985;BME280;17387;42.690;23.328;2022-08-03T09:21:26;47244.34;;;-144.02;34.01
29985;BME280;17387;42.690;23.328;2022-08-03T09:23:55;47278.88;;;-144.02;33.78
29985;BME280;17387;42.690;23.328;2022-08-03T09:26:25;47248.41;;;-144.02;33.82
29985;BME280;17387;42.690;23.328;2022-08-03T09:28:58;47398.72;;;-144.02;33.17
29985;BME280;17387;42.690;23.328;2022-08-03T09:31:32;47270.75;;;-144.02;33.31
29985;BME280;17387;42.690;23.328;2022-08-03T09:34:00;47258.56;;;-144.02;32.63
29985;BME280;17387;42.690;23.328;2022-08-03T09:36:48;47266.69;;;-144.02;33.29
29985;BME280;17387;42.690;23.328;2022-08-03T09:39:19;47274.81;;;-144.02;33.05
29985;BME280;17387;42.690;23.328;2022-08-03T09:41:47;47270.75;;;-144.02;32.49
29985;BME280;17387;42.690;23.328;2022-08-03T09:44:13;47222.03;;;-144.02;32.38
29985;BME280;17387;42.690;23.328;2022-08-03T09:46:49;47248.41;;;-144.02;32.11
29985;BME280;17387;42.690;23.328;2022-08-03T09:49:15;47203.75;;;-144.02;32.51
29985;BME280;17387;42.690;23.328;2022-08-03T09:51:42;47234.22;;;-144.02;33.06
29985;BME280;17387;42.690;23.328;2022-08-03T09:54:08;47278.88;;;-144.02;32.82
29985;BME280;17387;42.690;23.328;2022-08-03T09:56:41;47262.63;;;-144.02;32.85
29985;BME280;17387;42.690;23.328;2022-08-03T09:59:09;47268.72;;;-144.02;33.01
29985;BME280;17387;42.690;23.328;2022-08-03T10:01:36;47287.00;;;-144.02;33.38
29985;BME280;17387;42.690;23.328;2022-08-03T10:04:03;47268.72;;;-144.02;32.53
29985;BME280;17387;42.690;23.328;2022-08-03T10:06:28;47242.31;;;-144.02;32.47
29985;BME280;17387;42.690;23.328;2022-08-03T10:09:08;47329.66;;;-144.02;32.39
29985;BME280;17387;42.690;23.328;2022-08-03T10:11:34;47246.38;;;-144.02;32.07
29985;BME280;17387;42.690;23.328;2022-08-03T10:14:05;47228.13;;;-144.02;31.75
29985;BME280;17387;42.690;23.328;2022-08-03T10:16:36;47274.81;;;-144.02;31.38
29985;BME280;17387;42.690;23.328;2022-08-03T10:19:05;47254.50;;;-144.02;32.17
29985;BME280;17387;42.690;23.328;2022-08-03T10:21:34;47278.88;;;-144.02;31.68
29985;BME280;17387;42.690;23.328;2022-08-03T10:24:07;47254.50;;;-144.02;32.07
29985;BME280;17387;42.690;23.328;2022-08-03T10:26:40;47232.16;;;-144.02;32.03
29985;BME280;17387;42.690;23.328;2022-08-03T10:29:12;47246.38;;;-144.02;31.30
29985;BME280;17387;42.690;23.328;2022-08-03T10:31:44;47248.41;;;-144.02;30.58
29985;BME280;17387;42.690;23.328;2022-08-03T10:34:17;47226.09;;;-144.02;29.75
29985;BME280;17387;42.690;23.328;2022-08-03T10:36:44;47228.13;;;-144.02;29.77
29985;BME280;17387;42.690;23.328;2022-08-03T10:39:11;47207.81;;;-144.02;30.41
29985;BME280;17387;42.690;23.328;2022-08-03T10:41:40;47256.53;;;-144.02;31.03
29985;BME280;17387;42.690;23.328;2022-08-03T10:44:13;47270.75;;;-144.02;30.83
29985;BME280;17387;42.690;23.328;2022-08-03T10:46:40;47246.38;;;-144.02;31.26
29985;BME280;17387;42.690;23.328;2022-08-03T10:49:07;47242.31;;;-144.02;32.27
29985;BME280;17387;42.690;23.328;2022-08-03T10:51:33;47258.56;;;-144.02;32.79
29985;BME280;17387;42.690;23.328;2022-08-03T10:53:59;47250.44;;;-144.02;33.87
29985;BME280;17387;42.690;23.328;2022-08-03T10:56:37;47282.94;;;-144.02;33.57
29985;BME280;17387;42.690;23.328;2022-08-03T11:02:15;47362.16;;;-144.02;32.79
29985;BME280;17387;42.690;23.328;2022-08-03T11:04:42;47264.66;;;-144.02;32.94
29985;BME280;17387;42.690;23.328;2022-08-03T11:07:24;47289.03;;;-144.02;32.92
29985;BME280;17387;42.690;23.328;2022-08-03T11:09:52;47329.66;;;-144.02;33.18
29985;BME280;17387;42.690;23.328;2022-08-03T11:12:24;47262.63;;;-144.02;32.73
29985;BME280;17387;42.690;23.328;2022-08-03T11:14:52;47270.75;;;-144.02;32.59
29985;BME280;17387;42.690;23.328;2022-08-03T11:17:18;47266.69;;;-144.02;32.39
29985;BME280;17387;42.690;23.328;2022-08-03T11:19:48;47319.50;;;-144.02;32.45
29985;BME280;17387;42.690;23.328;2022-08-03T11:22:15;47266.69;;;-144.02;32.47
29985;BME280;17387;42.690;23.328;2022-08-03T11:35:31;47268.72;;;-144.02;31.75
29985;BME280;17387;42.690;23.328;2022-08-03T11:40:45;47209.84;;;-144.02;31.62
29985;BME280;17387;42.690;23.328;2022-08-03T11:45:59;47276.84;;;-144.02;31.58
29985;BME280;17387;42.690;23.328;2022-08-03T11:48:37;47238.28;;;-144.02;31.56
29985;BME280;17387;42.690;23.328;2022-08-03T11:51:05;47276.84;;;-144.02;32.05
29985;BME280;17387;42.690;23.328;2022-08-03T11:53:31;47433.25;;;-144.02;32.55
29985;BME280;17387;42.690;23.328;2022-08-03T11:56:01;47258.56;;;-144.02;32.28
29985;BME280;17387;42.690;23.328;2022-08-03T11:58:27;47258.56;;;-144.02;32.13
29985;BME280;17387;42.690;23.328;2022-08-03T12:01:05;47264.66;;;-144.02;32.57
29985;BME280;17387;42.690;23.328;2022-08-03T12:03:33;47295.13;;;-144.02;31.54
29985;BME280;17387;42.690;23.328;2022-08-03T12:05:59;47274.81;;;-144.02;30.94
29985;BME280;17387;42.690;23.328;2022-08-03T12:08:32;47274.81;;;-144.02;31.06
29985;BME280;17387;42.690;23.328;2022-08-03T12:11:00;47264.66;;;-144.02;31.29
29985;BME280;17387;42.690;23.328;2022-08-03T12:13:46;47258.56;;;-144.02;30.86
29985;BME280;17387;42.690;23.328;2022-08-03T12:16:24;47268.72;;;-144.02;30.70
29985;BME280;17387;42.690;23.328;2022-08-03T12:19:04;47230.16;;;-144.02;30.57
29985;BME280;17387;42.690;23.328;2022-08-03T12:21:31;47396.69;;;-144.02;30.20
29985;BME280;17387;42.690;23.328;2022-08-03T12:24:03;47266.69;;;-144.02;29.56
29985;BME280;17387;42.690;23.328;2022-08-03T12:26:42;47220.00;;;-144.02;29.41
29985;BME280;17387;42.690;23.328;2022-08-03T12:29:18;47220.00;;;-144.02;27.93
29985;BME280;17387;42.690;23.328;2022-08-03T12:31:44;47189.53;;;-144.02;27.98
29985;BME280;17387;42.690;23.328;2022-08-03T12:34:10;47226.09;;;-144.02;28.56
29985;BME280;17387;42.690;23.328;2022-08-03T12:36:36;47246.38;;;-144.02;30.04
29985;BME280;17387;42.690;23.328;2022-08-03T12:39:07;47260.59;;;-144.02;30.36
29985;BME280;17387;42.690;23.328;2022-08-03T12:41:35;47268.72;;;-144.02;30.89
29985;BME280;17387;42.690;23.328;2022-08-03T12:44:03;47234.22;;;-144.02;30.92
29985;BME280;17387;42.690;23.328;2022-08-03T12:46:34;47232.16;;;-144.02;28.65
29985;BME280;17387;42.690;23.328;2022-08-03T12:49:12;47197.66;;;-144.02;27.60
29985;BME280;17387;42.690;23.328;2022-08-03T12:54:07;47171.25;;;-144.02;26.17
29985;BME280;17387;42.690;23.328;2022-08-03T12:56:34;47130.63;;;-144.02;25.05
29985;BME280;17387;42.690;23.328;2022-08-03T12:59:00;47136.72;;;-144.02;24.18
29985;BME280;17387;42.690;23.328;2022-08-03T13:01:25;47120.47;;;-144.02;23.61
29985;BME280;17387;42.690;23.328;2022-08-03T13:04:00;47128.59;;;-144.02;23.45
29985;BME280;17387;42.690;23.328;2022-08-03T13:06:25;47114.38;;;-144.02;23.49
29985;BME280;17387;42.690;23.328;2022-08-03T13:09:03;47234.22;;;-144.02;23.33
29985;BME280;17387;42.690;23.328;2022-08-03T13:11:29;47136.72;;;-144.02;23.85